Wednesday, April 23, 2014
06:43 UTC
  |  Log In   |  Register Free
Airport Search:

Dawson Municipal Airport
(16J)

Dawson Municipal Airport Diagram
No Airport Diagram Available

FAA data valid effective April 3, 2014 until May 29, 2014 (unless otherwise noted).

 
 
 
 
 
 
 
 
 
 
 
 
 
 

Current Aviation Weather for Dawson Municipal Airport (16J)

The most recent METAR observation for KABY was updated at: 0553 UTC
METAR Summary (Translated METAR)
KABY
230553Z 24003KT 4SM BR FEW050 OVC065 18/18 A2990 RMK AO2 SLP125 60000 T01830178 10194 20172 56001
KMGR
(33.7 nm SE from KABY)
230535Z AUTO 00000KT 10SM SCT060 18/18 A2990 RMK AO2
TAF Summary (Translated TAF)
KABY
230521Z 2306/2406 00000KT 3SM BR SCT007 BKN050 TEMPO 2309/2313 1/2SM FG BKN005 FM231400 33005KT P6SM SCT040
  Airport Weather Conditions for 16J

Current weather conditions are
not available for 16J


The nearest NOAA weather station
is at ABY, (17 nm SE from 16J)
  
 Current Weather at ABY
65° F
Fog/Mist
Southwest winds at 3.5 mph
ABY NOAA Radar

Pressure: 29.90 in
Humidity: 97%
Wind: Southwest at 3.5 MPH (3 KT)
Dew Point: 64.0°F
Visibility: 4.00 mi


Airport Weather Forecast for 16J

Translated METAR and TAF for KABY
Translated METAR for KABY (0643 UTC 23 April 2014)
found at http://aviationweather.gov/adds/metars/
 
METAR text: KABY 230631Z 26003KT 2 1/2SM BR FEW050 BKN065 18/17 A2990 RMK AO2
Conditions at: KABY (ALBANY , GA, US) observed 0631 UTC 23 April 2014
Temperature: 18.0°C (64°F)
Dewpoint: 17.0°C (63°F) [RH = 94%]
Pressure (altimeter): 29.90 inches Hg (1012.6 mb)
Winds: from the W (260 degrees) at 3 MPH (3 knots; 1.6 m/s)
Visibility: 2.50 miles (4.02 km)
Ceiling: 6500 feet AGL
Clouds: few clouds at 5000 feet AGL
broken clouds at 6500 feet AGL
Weather: BR  (mist)
Translated TAF for KABY
Forecast for: KABY (ALBANY , GA, US)
TAF Text: KABY 230521Z 2306/2406 00000KT 3SM BR SCT007 BKN050
Forecast period: 0600 to 1400 UTC 23 April 2014
Forecast type: FROM: standard forecast or significant change
Winds: calm
Visibility: 3 miles (5 km)
Ceiling: 5000 feet AGL
Clouds: scattered clouds at 700 feet AGL
broken clouds at 5000 feet AGL
Weather: BR  (mist)
TAF Text: TEMPO 2309/2313 1/2SM FG BKN005
Forecast period: 0900 to 1300 UTC 23 April 2014
Forecast type: TEMPORARY: The following changes expected for less than half the time period
Visibility: 0.50 miles (0.80 km)
Ceiling: 500 feet AGL
Clouds: broken clouds at 500 feet AGL
Weather: FG  (fog)
TAF Text: FM231400 33005KT P6SM SCT040
Forecast period: 1400 UTC 23 April 2014 to 0600 UTC 24 April 2014
Forecast type: FROM: standard forecast or significant change
Winds: from the NNW (330 degrees) at 6 MPH (5 knots; 2.6 m/s)
Visibility: 6 or more miles (10+ km)
Clouds: scattered clouds at 4000 feet AGL
Weather: no significant weather forecast for this period

Find All Airport Services Find A Hotel Find A Rental Car Find A Golf Course Find A Restaurant $100 Hamburger



FBO's on the Field
FBO Company Facility Photos Services Transportation Aviation Fuel Prices: Prices include tax
Catering Weather Repair Courtesy Rental Type 100LL JetA JetA+ MOGAS 8087
 
Dawson/Terrell Co. Airport

This FBO has not yet been rated
FS:Independent
Last Updated: Mar-28
Login to update fuel prices
SS:
Contact Dawson/Terrell Co. AirportMore FBO Information
 
Add another FBO Facility Photos Catering Weather Repair Courtesy Rental Type 100LL JetA JetA+ MOGAS 8087
Services Transportation Aviation Fuel Prices: Prices include tax


GlobalAir.com Airport Resource Center model-print
model-print
model-print
model-print